Time;durP1;ratioP1;P1;durP2;ratioP2;P2;SDS_P1;SDS_P2;PMS_P1;PMS_P2;Temp;Humidity;BMP_temperature;BMP_pressure;BME280_temperature;BME280_humidity;BME280_pressure;Samples;Min_cycle;Max_cycle;Signal;HPM_P1;HPM_P2
2021/12/30 00:01:56;;;;;;;0.15;0.05;;;8.50;99.90;;;;;;5055300;28;20045;-83
2021/12/30 00:04:24;;;;;;;0.10;0.10;;;8.60;99.90;;;;;;5055311;28;20114;-83
2021/12/30 00:06:51;;;;;;;4.45;3.15;;;8.60;99.90;;;;;;5055040;28;20051;-83
2021/12/30 00:09:20;;;;;;;0.75;0.70;;;8.60;99.90;;;;;;5072709;28;20052;-83
2021/12/30 00:11:48;;;;;;;0.35;0.30;;;8.50;99.90;;;;;;5055018;28;20049;-83
2021/12/30 00:14:35;;;;;;;0.40;0.30;;;8.50;99.90;;;;;;5072942;28;20049;-83
2021/12/30 00:17:03;;;;;;;0.60;0.60;;;8.50;99.90;;;;;;5072481;28;20135;-83
2021/12/30 00:19:30;;;;;;;3.45;0.90;;;8.50;99.90;;;;;;5054968;28;20045;-84
2021/12/30 00:21:57;;;;;;;1.50;1.40;;;8.50;99.90;;;;;;5072829;28;20054;-83
2021/12/30 00:24:23;;;;;;;1.10;1.10;;;8.50;99.90;;;;;;5072550;28;20580;-83
2021/12/30 00:26:52;;;;;;;1.55;1.45;;;8.50;99.90;;;;;;5055013;28;20098;-83
2021/12/30 00:29:20;;;;;;;6.45;5.80;;;8.50;99.90;;;;;;5055005;28;20410;-83
2021/12/30 00:31:48;;;;;;;3.05;2.85;;;8.60;99.90;;;;;;5072460;28;20044;-83
2021/12/30 00:34:14;;;;;;;0.47;0.47;;;8.60;99.90;;;;;;5054803;28;20597;-83
2021/12/30 00:36:42;;;;;;;1.40;0.60;;;8.60;99.90;;;;;;5072414;28;20127;-83
2021/12/30 00:39:09;;;;;;;0.50;0.50;;;8.60;99.90;;;;;;5054417;28;20055;-84
2021/12/30 00:41:36;;;;;;;2.13;1.50;;;8.60;99.90;;;;;;5074505;28;20513;-83
2021/12/30 00:44:04;;;;;;;2.30;2.20;;;8.60;99.90;;;;;;5076498;28;20063;-83
2021/12/30 00:46:31;;;;;;;3.80;3.50;;;8.70;99.90;;;;;;5059182;28;20124;-83
2021/12/30 00:48:58;;;;;;;2.70;2.50;;;8.70;99.90;;;;;;5058907;28;20083;-83
2021/12/30 00:51:24;;;;;;;1.00;1.00;;;8.70;99.90;;;;;;5059000;28;20055;-83
2021/12/30 00:53:51;;;;;;;0.85;0.80;;;8.60;99.90;;;;;;5077016;28;20079;-82
2021/12/30 00:56:18;;;;;;;2.67;2.58;;;8.60;99.90;;;;;;5076617;28;20132;-83
2021/12/30 00:58:44;;;;;;;2.90;2.70;;;8.50;99.90;;;;;;5058850;28;20131;-82
2021/12/30 01:01:11;;;;;;;1.58;0.98;;;8.50;99.90;;;;;;5076514;28;20131;-82
2021/12/30 01:03:39;;;;;;;3.00;2.80;;;8.50;99.90;;;;;;5058748;28;20418;-82
2021/12/30 01:06:06;;;;;;;5.45;4.07;;;8.50;99.90;;;;;;5058378;28;20131;-83
2021/12/30 01:08:32;;;;;;;4.20;3.80;;;8.50;99.90;;;;;;5075992;28;20052;-83
2021/12/30 01:11:05;;;;;;;4.55;3.20;;;8.40;99.90;;;;;;5058302;28;20128;-81
2021/12/30 01:13:32;;;;;;;4.60;2.10;;;8.50;99.90;;;;;;5076201;28;20087;-82
2021/12/30 01:16:01;;;;;;;2.70;1.88;;;8.40;99.90;;;;;;5076160;28;20136;-82
2021/12/30 01:18:42;;;;;;;2.30;1.83;;;8.40;99.90;;;;;;5058332;28;20059;-82
2021/12/30 01:21:12;;;;;;;0.70;0.70;;;8.40;99.90;;;;;;5075791;28;20143;-82
2021/12/30 01:23:41;;;;;;;2.15;1.30;;;8.40;99.90;;;;;;5058278;28;20128;-82
2021/12/30 01:26:09;;;;;;;1.92;0.68;;;8.40;99.90;;;;;;5075863;28;20489;-82
2021/12/30 01:28:36;;;;;;;0.32;0.32;;;8.50;99.90;;;;;;5058150;28;20122;-82
2021/12/30 01:31:03;;;;;;;1.30;0.60;;;8.40;99.90;;;;;;5057847;28;20112;-82
2021/12/30 01:33:30;;;;;;;0.50;0.50;;;8.50;99.90;;;;;;5057994;28;20058;-82
2021/12/30 01:35:57;;;;;;;0.45;0.30;;;8.60;99.90;;;;;;5075476;28;20443;-82
2021/12/30 01:38:24;;;;;;;2.17;1.98;;;8.60;99.90;;;;;;5057896;28;20091;-82
2021/12/30 01:40:54;;;;;;;1.27;1.15;;;8.60;99.90;;;;;;5075494;28;20080;-82
2021/12/30 01:43:21;;;;;;;0.95;0.80;;;8.50;99.90;;;;;;5057876;28;20469;-82
2021/12/30 01:45:48;;;;;;;0.65;0.65;;;8.50;99.90;;;;;;5075280;28;20072;-82
2021/12/30 01:48:15;;;;;;;1.45;1.20;;;8.50;99.90;;;;;;5075509;28;20076;-82
2021/12/30 01:50:42;;;;;;;1.05;0.85;;;8.40;99.90;;;;;;5057765;28;20460;-82
2021/12/30 01:53:09;;;;;;;3.17;2.80;;;8.30;99.90;;;;;;5056534;28;20070;-82
2021/12/30 01:55:39;;;;;;;1.95;1.85;;;8.30;99.90;;;;;;5057429;28;20135;-82
2021/12/30 01:58:08;;;;;;;1.85;1.20;;;8.30;99.90;;;;;;5057530;28;20595;-82
2021/12/30 02:00:35;;;;;;;4.57;2.17;;;8.20;99.90;;;;;;5075257;28;20048;-83
2021/12/30 02:03:04;;;;;;;1.50;1.35;;;8.20;99.90;;;;;;5075348;28;20041;-82
2021/12/30 02:05:33;;;;;;;1.50;1.23;;;8.20;99.90;;;;;;5057508;28;20049;-82
2021/12/30 02:07:59;;;;;;;1.42;1.30;;;8.10;99.90;;;;;;5057346;28;20051;-83
2021/12/30 02:10:26;;;;;;;2.13;1.92;;;8.00;99.90;;;;;;5057508;28;20054;-82
2021/12/30 02:12:53;;;;;;;0.50;0.40;;;8.00;99.90;;;;;;5057308;28;20059;-83
2021/12/30 02:15:20;;;;;;;2.10;1.17;;;8.00;99.90;;;;;;5075219;28;20062;-83
2021/12/30 02:17:49;;;;;;;3.28;1.60;;;8.00;99.90;;;;;;5057227;28;20056;-82
2021/12/30 02:20:39;;;;;;;1.67;1.20;;;7.90;99.90;;;;;;5057082;28;20136;-82
2021/12/30 02:23:07;;;;;;;3.75;1.55;;;7.90;99.90;;;;;;5057013;28;20131;-83
2021/12/30 02:25:34;;;;;;;2.47;0.93;;;7.80;99.90;;;;;;5074630;28;20127;-83
2021/12/30 02:28:06;;;;;;;3.50;1.17;;;7.80;99.90;;;;;;5057099;28;20067;-82
2021/12/30 02:30:33;;;;;;;1.35;0.80;;;7.80;99.90;;;;;;5057191;28;20055;-82
2021/12/30 02:33:00;;;;;;;2.17;1.58;;;7.80;99.90;;;;;;5057007;28;20143;-83
2021/12/30 02:35:27;;;;;;;2.55;1.20;;;7.70;99.90;;;;;;5056899;28;20151;-82
2021/12/30 02:37:53;;;;;;;1.33;0.90;;;7.70;99.90;;;;;;5056609;28;20052;-82
2021/12/30 02:40:28;;;;;;;0.60;0.52;;;7.60;99.90;;;;;;5074579;28;20041;-83
2021/12/30 02:42:55;;;;;;;1.98;0.70;;;7.60;99.90;;;;;;5056759;28;20086;-82
2021/12/30 02:45:22;;;;;;;1.73;1.00;;;7.60;99.90;;;;;;5074234;28;20140;-83
2021/12/30 02:47:49;;;;;;;2.05;0.68;;;7.60;99.90;;;;;;5074464;28;20049;-83
2021/12/30 02:50:15;;;;;;;1.67;0.80;;;7.60;99.90;;;;;;5056341;28;20060;-83
2021/12/30 02:52:42;;;;;;;1.52;1.00;;;7.50;99.90;;;;;;5056694;28;20123;-83
2021/12/30 02:55:10;;;;;;;1.27;0.77;;;7.60;99.90;;;;;;5056577;28;20052;-81
2021/12/30 02:57:36;;;;;;;2.30;1.25;;;7.60;99.90;;;;;;5074142;28;20076;-82
2021/12/30 03:00:06;;;;;;;3.22;1.27;;;7.50;99.90;;;;;;5056151;28;20412;-82
2021/12/30 03:02:39;;;;;;;2.40;1.30;;;7.60;99.90;;;;;;5074211;28;20055;-82
2021/12/30 03:05:07;;;;;;;3.50;1.40;;;7.60;99.90;;;;;;5056401;28;20048;-82
2021/12/30 03:07:35;;;;;;;1.92;1.70;;;7.50;99.90;;;;;;5056418;28;20051;-82
2021/12/30 03:10:03;;;;;;;4.10;1.55;;;7.50;99.90;;;;;;5073721;28;20080;-83
2021/12/30 03:12:30;;;;;;;2.90;1.38;;;7.60;99.90;;;;;;5056149;28;20080;-82
2021/12/30 03:14:58;;;;;;;2.20;1.20;;;7.60;99.90;;;;;;5056208;28;20140;-82
2021/12/30 03:17:25;;;;;;;3.40;1.15;;;7.60;99.90;;;;;;5073787;28;20139;-83
2021/12/30 03:19:56;;;;;;;2.50;1.27;;;7.60;99.90;;;;;;5073665;28;20489;-83
2021/12/30 03:22:24;;;;;;;1.20;0.95;;;7.60;99.90;;;;;;5073592;28;20144;-82
2021/12/30 03:24:51;;;;;;;3.25;1.10;;;7.60;99.90;;;;;;5056020;28;20053;-83
2021/12/30 03:27:17;;;;;;;1.33;1.05;;;7.50;99.90;;;;;;5073566;28;20504;-83
2021/12/30 03:29:44;;;;;;;2.08;1.33;;;7.50;99.90;;;;;;5055886;28;20492;-83
2021/12/30 03:32:11;;;;;;;1.70;1.08;;;7.50;99.90;;;;;;5055797;28;20056;-83
2021/12/30 03:34:38;;;;;;;1.80;1.20;;;7.50;99.90;;;;;;5055714;28;20049;-83
2021/12/30 03:37:04;;;;;;;3.92;1.20;;;7.60;99.90;;;;;;5055492;28;20061;-82
2021/12/30 03:39:31;;;;;;;1.40;1.30;;;7.60;99.90;;;;;;5055361;28;20144;-83
2021/12/30 03:41:59;;;;;;;1.30;1.20;;;7.60;99.90;;;;;;5055731;28;20102;-82
2021/12/30 03:44:25;;;;;;;4.70;1.60;;;7.60;99.90;;;;;;5073144;28;20131;-82
2021/12/30 03:46:53;;;;;;;3.00;1.45;;;7.60;99.90;;;;;;5055375;28;20476;-83
2021/12/30 03:49:19;;;;;;;1.42;1.38;;;7.70;99.90;;;;;;5055369;28;20566;-82
2021/12/30 03:51:47;;;;;;;3.75;1.48;;;7.60;99.90;;;;;;5055536;28;20048;-83
2021/12/30 03:54:14;;;;;;;3.25;1.27;;;7.70;99.90;;;;;;5055304;28;20128;-83
2021/12/30 03:56:41;;;;;;;2.50;1.48;;;7.60;99.90;;;;;;5055123;28;20059;-82
2021/12/30 03:59:09;;;;;;;11.20;1.95;;;7.60;99.90;;;;;;5055507;28;20048;-83
2021/12/30 04:01:36;;;;;;;1.58;1.30;;;7.60;99.90;;;;;;5055298;28;20079;-83
2021/12/30 04:04:04;;;;;;;3.92;1.60;;;7.70;99.90;;;;;;5072711;28;20124;-83
2021/12/30 04:06:30;;;;;;;2.75;1.48;;;7.60;99.90;;;;;;5055051;28;20049;-82
2021/12/30 04:08:58;;;;;;;4.85;2.60;;;7.60;99.90;;;;;;5072685;28;20074;-82
2021/12/30 04:11:26;;;;;;;2.40;2.03;;;7.60;99.90;;;;;;5055411;28;20099;-82
2021/12/30 04:13:54;;;;;;;1.60;1.50;;;7.80;99.90;;;;;;5072746;28;20131;-82
2021/12/30 04:16:20;;;;;;;2.67;1.88;;;7.80;99.90;;;;;;5054780;28;20157;-83
2021/12/30 04:18:48;;;;;;;1.85;1.60;;;7.80;99.90;;;;;;5054940;28;20044;-83
2021/12/30 04:21:20;;;;;;;7.30;1.88;;;7.70;99.90;;;;;;5055154;28;20100;-83
2021/12/30 04:23:47;;;;;;;1.73;1.63;;;7.70;99.90;;;;;;5054951;28;20580;-83
2021/12/30 04:26:14;;;;;;;2.03;1.55;;;7.60;99.90;;;;;;5055309;28;20056;-83
2021/12/30 04:28:41;;;;;;;3.17;1.80;;;7.60;99.90;;;;;;5072969;28;20051;-83
2021/12/30 04:31:09;;;;;;;2.10;1.85;;;7.60;99.90;;;;;;5072666;28;20067;-83
2021/12/30 04:33:36;;;;;;;7.78;2.30;;;7.60;99.90;;;;;;5055165;28;20135;-83
2021/12/30 04:36:03;;;;;;;3.72;2.20;;;7.60;99.90;;;;;;5055011;28;20058;-83
2021/12/30 04:38:31;;;;;;;4.95;2.05;;;7.70;99.90;;;;;;5054904;28;20056;-83
2021/12/30 04:41:00;;;;;;;3.35;2.15;;;7.70;99.90;;;;;;5054914;28;20512;-83
2021/12/30 04:43:27;;;;;;;3.50;1.75;;;7.70;99.90;;;;;;5072758;28;20064;-83
2021/12/30 04:45:54;;;;;;;2.65;2.40;;;7.80;99.90;;;;;;5054815;28;20136;-82
2021/12/30 04:48:21;;;;;;;5.82;2.45;;;7.70;99.90;;;;;;5055191;28;20040;-82
2021/12/30 04:50:48;;;;;;;5.30;2.20;;;7.70;99.90;;;;;;5054752;28;20132;-83
2021/12/30 04:53:16;;;;;;;4.45;2.30;;;7.70;99.90;;;;;;5055016;28;20049;-82
2021/12/30 04:55:43;;;;;;;7.43;4.43;;;7.70;99.90;;;;;;5054792;28;20147;-83
2021/12/30 04:58:10;;;;;;;5.53;4.07;;;7.70;99.90;;;;;;5054601;28;20492;-83
2021/12/30 05:00:37;;;;;;;7.03;4.60;;;7.70;99.90;;;;;;5054893;28;20045;-83
2021/12/30 05:03:12;;;;;;;5.45;3.85;;;7.60;99.90;;;;;;5072723;28;20076;-83
2021/12/30 05:05:41;;;;;;;7.03;3.72;;;7.70;99.90;;;;;;5054733;28;20044;-83
2021/12/30 05:08:07;;;;;;;7.00;3.03;;;7.70;99.90;;;;;;5054654;28;20493;-83
2021/12/30 05:10:35;;;;;;;4.25;2.50;;;7.70;99.90;;;;;;5054770;28;20049;-83
2021/12/30 05:13:03;;;;;;;3.63;3.33;;;7.60;99.90;;;;;;5054794;28;20139;-83
2021/12/30 05:15:30;;;;;;;3.10;2.55;;;7.60;99.90;;;;;;5054710;28;20136;-83
2021/12/30 05:17:57;;;;;;;4.40;3.42;;;7.60;99.90;;;;;;5054733;28;20075;-83
2021/12/30 05:20:24;;;;;;;7.18;4.35;;;7.60;99.90;;;;;;5054740;28;20128;-83
2021/12/30 05:22:51;;;;;;;7.85;5.65;;;7.50;99.90;;;;;;5054674;28;20128;-82
2021/12/30 05:25:19;;;;;;;9.65;4.82;;;7.60;99.90;;;;;;5054776;28;20556;-83
2021/12/30 05:27:48;;;;;;;11.70;7.68;;;7.50;99.90;;;;;;5055459;28;20453;-82
2021/12/30 05:30:15;;;;;;;13.07;6.50;;;7.50;99.90;;;;;;5058368;28;20052;-83
2021/12/30 05:32:42;;;;;;;14.57;8.13;;;7.50;99.90;;;;;;5058212;28;20132;-83
2021/12/30 05:35:11;;;;;;;13.52;8.38;;;7.40;99.90;;;;;;5058656;28;20056;-83
2021/12/30 05:37:40;;;;;;;12.68;7.93;;;7.40;99.90;;;;;;5058203;28;20048;-83
2021/12/30 05:40:09;;;;;;;9.32;7.30;;;7.30;99.90;;;;;;5076154;28;20425;-83
2021/12/30 05:42:36;;;;;;;13.07;7.40;;;7.40;99.90;;;;;;5058482;28;20045;-83
2021/12/30 05:45:04;;;;;;;12.70;7.30;;;7.40;99.90;;;;;;5075905;28;20045;-82
2021/12/30 05:47:33;;;;;;;13.07;8.40;;;7.50;99.90;;;;;;5075895;28;20106;-83
2021/12/30 05:50:03;;;;;;;9.32;7.20;;;7.40;99.90;;;;;;5057957;28;20048;-83
2021/12/30 05:52:30;;;;;;;11.77;7.82;;;7.40;99.90;;;;;;5057890;28;20127;-82
2021/12/30 05:54:57;;;;;;;8.65;6.45;;;7.40;99.90;;;;;;5057734;28;20088;-82
2021/12/30 05:57:24;;;;;;;22.65;7.43;;;7.40;99.90;;;;;;5057725;28;20127;-83
2021/12/30 05:59:50;;;;;;;7.43;6.15;;;7.80;99.90;;;;;;5057487;28;20137;-83
2021/12/30 06:02:17;;;;;;;9.68;5.80;;;8.10;99.90;;;;;;5057535;28;20048;-82
2021/12/30 06:04:44;;;;;;;9.65;5.60;;;8.10;99.90;;;;;;5057658;28;20493;-83
2021/12/30 06:07:11;;;;;;;15.38;6.15;;;8.10;99.90;;;;;;5057630;28;20087;-83
2021/12/30 06:09:38;;;;;;;20.65;6.93;;;8.10;99.90;;;;;;5057837;28;20474;-83
2021/12/30 06:12:05;;;;;;;15.57;7.07;;;8.10;99.90;;;;;;5075278;28;20044;-83
2021/12/30 06:14:31;;;;;;;20.33;6.50;;;8.10;99.90;;;;;;5075447;28;20045;-84
2021/12/30 06:16:58;;;;;;;13.93;6.60;;;8.20;99.90;;;;;;5057669;28;20143;-84
2021/12/30 06:19:25;;;;;;;15.93;7.53;;;8.30;99.90;;;;;;5057309;28;20135;-82
2021/12/30 06:21:52;;;;;;;13.60;7.13;;;8.30;99.90;;;;;;5057325;28;20135;-84
2021/12/30 06:24:19;;;;;;;20.73;7.85;;;8.30;99.90;;;;;;5057317;28;20051;-83
2021/12/30 06:26:46;;;;;;;17.52;7.03;;;8.40;99.90;;;;;;5074485;28;20056;-83
2021/12/30 06:29:14;;;;;;;14.23;5.25;;;8.40;99.90;;;;;;5057328;28;20127;-84
2021/12/30 06:31:42;;;;;;;16.45;5.68;;;8.60;99.90;;;;;;5057109;28;20135;-83
2021/12/30 06:34:09;;;;;;;15.10;6.60;;;8.70;99.90;;;;;;5057148;28;20048;-84
2021/12/30 06:36:36;;;;;;;16.65;5.82;;;8.70;99.90;;;;;;5056710;28;20053;-82
2021/12/30 06:39:04;;;;;;;16.35;4.95;;;8.80;99.90;;;;;;5055997;28;20056;-83
2021/12/30 06:41:30;;;;;;;12.32;4.82;;;8.90;99.90;;;;;;5074375;28;20048;-82
2021/12/30 06:43:57;;;;;;;12.18;4.93;;;9.10;99.90;;;;;;5056771;28;20084;-83
2021/12/30 06:46:24;;;;;;;10.00;3.22;;;9.10;99.90;;;;;;5056833;28;20564;-83
2021/12/30 06:48:51;;;;;;;12.77;3.45;;;9.20;99.90;;;;;;5057148;28;20572;-84
2021/12/30 06:51:21;;;;;;;8.63;2.97;;;9.40;99.90;;;;;;5074575;28;20048;-84
2021/12/30 06:53:48;;;;;;;10.35;3.08;;;9.50;99.90;;;;;;5056651;28;20492;-84
2021/12/30 06:56:14;;;;;;;11.18;2.60;;;9.60;99.90;;;;;;5056597;28;20059;-83
2021/12/30 06:58:41;;;;;;;12.88;2.88;;;9.70;99.90;;;;;;5074432;28;20135;-83
2021/12/30 07:01:08;;;;;;;9.60;2.33;;;9.80;99.90;;;;;;5056313;28;20080;-83
2021/12/30 07:03:35;;;;;;;6.55;2.25;;;9.80;99.90;;;;;;5056708;28;20051;-83
2021/12/30 07:06:02;;;;;;;8.02;2.45;;;9.80;99.90;;;;;;5056466;28;20055;-83
2021/12/30 07:08:29;;;;;;;10.27;2.63;;;9.90;99.90;;;;;;5073970;28;20080;-83
2021/12/30 07:10:55;;;;;;;11.40;2.92;;;9.90;99.90;;;;;;5056245;28;20135;-83
2021/12/30 07:13:22;;;;;;;8.38;2.17;;;9.90;99.90;;;;;;5056173;28;20558;-83
2021/12/30 07:15:49;;;;;;;9.02;2.05;;;9.90;99.90;;;;;;5056091;28;20051;-83
2021/12/30 07:18:16;;;;;;;8.38;2.70;;;10.10;99.90;;;;;;5056380;28;20044;-84
2021/12/30 07:20:43;;;;;;;8.98;2.15;;;10.10;99.90;;;;;;5056089;28;20044;-83
2021/12/30 07:23:10;;;;;;;7.70;2.30;;;10.20;99.90;;;;;;5056266;28;20130;-84
2021/12/30 07:25:36;;;;;;;4.47;1.70;;;10.20;99.90;;;;;;5056002;28;20416;-83
2021/12/30 07:28:04;;;;;;;4.10;1.67;;;10.20;99.90;;;;;;5073033;28;20489;-83
2021/12/30 07:30:31;;;;;;;5.47;1.67;;;10.20;99.90;;;;;;5056049;28;20048;-83
2021/12/30 07:32:58;;;;;;;10.95;2.53;;;10.20;99.90;;;;;;5056439;28;20052;-83
2021/12/30 07:35:26;;;;;;;7.22;1.60;;;10.30;99.90;;;;;;5073680;28;20135;-83
2021/12/30 07:37:52;;;;;;;6.78;2.05;;;10.30;99.90;;;;;;5055650;28;20143;-83
2021/12/30 07:40:20;;;;;;;6.32;1.88;;;10.40;99.90;;;;;;5055866;28;20536;-83
2021/12/30 07:42:47;;;;;;;5.47;1.60;;;10.40;99.90;;;;;;5059798;28;20076;-83
2021/12/30 07:45:15;;;;;;;8.73;2.00;;;10.50;99.90;;;;;;5068385;28;20052;-83
2021/12/30 07:47:49;;;;;;;8.55;1.70;;;10.50;99.90;;;;;;5076832;28;20135;-83
2021/12/30 07:50:15;;;;;;;6.57;1.40;;;10.60;99.90;;;;;;5093130;28;20164;-83
2021/12/30 07:52:42;;;;;;;5.30;1.92;;;10.70;99.90;;;;;;5093656;28;20051;-84
2021/12/30 07:55:11;;;;;;;6.85;1.73;;;10.70;99.90;;;;;;5075510;28;20135;-83
2021/12/30 07:57:37;;;;;;;5.55;1.75;;;10.70;99.90;;;;;;5075633;28;20044;-84
2021/12/30 08:00:08;;;;;;;10.48;4.20;;;10.80;99.90;;;;;;5075464;28;20087;-84
2021/12/30 08:02:35;;;;;;;12.10;4.35;;;10.60;99.90;;;;;;5075486;28;20127;-83
2021/12/30 08:05:02;;;;;;;9.77;3.20;;;10.50;99.90;;;;;;5075127;28;20162;-83
2021/12/30 08:07:29;;;;;;;6.88;2.97;;;10.50;99.90;;;;;;5093400;28;20135;-84
2021/12/30 08:09:56;;;;;;;5.50;2.03;;;10.40;99.90;;;;;;5075284;28;20079;-83
2021/12/30 08:12:22;;;;;;;4.45;1.75;;;10.40;99.90;;;;;;5093724;28;20139;-82
2021/12/30 08:14:49;;;;;;;5.57;1.40;;;10.50;99.90;;;;;;5093516;28;20040;-83
2021/12/30 08:17:16;;;;;;;3.97;1.50;;;10.60;99.90;;;;;;5076266;28;20044;-84
2021/12/30 08:19:43;;;;;;;5.78;1.80;;;10.70;99.90;;;;;;5075915;28;20496;-83
2021/12/30 08:22:10;;;;;;;6.18;1.63;;;10.80;99.90;;;;;;5076094;28;20048;-82
2021/12/30 08:24:42;;;;;;;6.13;1.65;;;10.90;99.90;;;;;;5093835;28;20044;-83
2021/12/30 08:27:14;;;;;;;6.05;2.25;;;11.00;99.90;;;;;;5075798;28;20051;-83
2021/12/30 08:29:42;;;;;;;8.23;2.08;;;10.90;99.90;;;;;;5075657;28;20134;-84
2021/12/30 08:32:11;;;;;;;6.15;1.25;;;10.90;99.90;;;;;;5093202;28;20415;-83
2021/12/30 08:34:42;;;;;;;3.58;0.90;;;10.90;99.90;;;;;;5074795;28;20055;-83
2021/12/30 08:37:09;;;;;;;1.92;0.65;;;10.90;99.90;;;;;;5092609;28;20052;-83
2021/12/30 08:39:36;;;;;;;2.33;0.93;;;10.90;99.90;;;;;;5092743;28;20079;-83
2021/12/30 08:42:05;;;;;;;1.90;0.60;;;11.00;99.90;;;;;;5093441;28;20551;-83
2021/12/30 08:44:32;;;;;;;2.67;0.68;;;11.00;99.90;;;;;;5074977;28;20217;-83
2021/12/30 08:46:58;;;;;;;4.53;0.70;;;11.00;99.90;;;;;;5092883;28;20052;-83
2021/12/30 08:49:25;;;;;;;4.30;0.60;;;11.10;99.90;;;;;;5074773;28;20506;-83
2021/12/30 08:51:52;;;;;;;2.13;0.30;;;11.10;99.90;;;;;;5075241;28;20139;-83
2021/12/30 08:54:19;;;;;;;0.45;0.38;;;11.20;99.90;;;;;;5093259;28;20059;-83
2021/12/30 08:56:46;;;;;;;1.35;0.50;;;11.30;99.90;;;;;;5092799;28;20515;-83
2021/12/30 08:59:13;;;;;;;1.17;0.65;;;11.30;99.90;;;;;;5075242;28;20504;-83
2021/12/30 09:01:40;;;;;;;2.00;0.40;;;11.40;99.90;;;;;;5075530;28;20150;-84
2021/12/30 09:04:07;;;;;;;1.83;0.60;;;11.40;99.90;;;;;;5078495;28;20191;-84
2021/12/30 09:06:33;;;;;;;3.30;0.30;;;11.40;99.90;;;;;;5079362;28;20044;-82
2021/12/30 09:09:00;;;;;;;1.30;0.20;;;11.50;99.90;;;;;;5078840;28;20048;-84
2021/12/30 09:11:27;;;;;;;1.17;0.30;;;11.50;99.90;;;;;;5078741;28;20052;-83
2021/12/30 09:13:54;;;;;;;0.45;0.30;;;11.60;99.90;;;;;;5078881;28;20052;-83
2021/12/30 09:16:20;;;;;;;1.30;1.20;;;11.60;99.90;;;;;;5078491;28;20052;-83
2021/12/30 09:18:47;;;;;;;4.13;3.72;;;11.70;99.90;;;;;;5096346;28;20121;-82
2021/12/30 09:21:14;;;;;;;4.20;3.80;;;11.70;99.90;;;;;;5078546;28;20408;-83
2021/12/30 09:23:41;;;;;;;5.80;5.30;;;11.70;99.90;;;;;;5078384;28;20131;-83
2021/12/30 09:26:07;;;;;;;3.55;2.28;;;11.80;99.90;;;;;;5095337;28;20123;-83
2021/12/30 09:28:34;;;;;;;0.43;0.32;;;11.70;99.90;;;;;;5079028;28;20044;-83
2021/12/30 09:31:01;;;;;;;0.30;0.30;;;11.80;99.90;;;;;;5078240;28;20135;-83
2021/12/30 09:33:28;;;;;;;1.48;0.70;;;11.80;99.90;;;;;;5096373;28;20048;-83
2021/12/30 09:35:54;;;;;;;0.20;0.20;;;11.80;99.90;;;;;;5078119;28;20052;-83
2021/12/30 09:38:21;;;;;;;0.32;0.32;;;11.80;99.90;;;;;;5096006;28;20105;-83
2021/12/30 09:40:48;;;;;;;0.98;0.30;;;11.80;99.90;;;;;;5096478;28;20083;-84
2021/12/30 09:43:15;;;;;;;0.30;0.30;;;11.70;99.90;;;;;;5096258;28;20054;-82
2021/12/30 09:45:42;;;;;;;0.28;0.28;;;11.70;99.90;;;;;;5078533;28;20127;-82
2021/12/30 09:48:13;;;;;;;0.32;0.32;;;11.60;99.90;;;;;;5078828;28;20554;-84
2021/12/30 09:50:51;;;;;;;0.25;0.10;;;11.70;99.90;;;;;;5096104;28;20135;-83
2021/12/30 09:53:20;;;;;;;0.10;0.10;;;11.70;99.90;;;;;;5078013;28;20131;-83
2021/12/30 09:55:48;;;;;;;0.35;0.20;;;11.80;99.90;;;;;;5095992;28;20048;-83
2021/12/30 09:58:15;;;;;;;0.10;0.10;;;11.80;99.90;;;;;;5077838;28;20058;-83
2021/12/30 10:00:42;;;;;;;1.23;0.20;;;11.90;99.90;;;;;;5077798;28;20123;-82
2021/12/30 10:03:09;;;;;;;0.10;0.10;;;12.00;99.90;;;;;;5078440;28;20087;-81
2021/12/30 10:05:39;;;;;;;0.00;0.00;;;12.10;99.90;;;;;;5078026;28;20131;-83
2021/12/30 10:08:09;;;;;;;0.10;0.10;;;12.10;99.90;;;;;;5078315;28;20127;-83
2021/12/30 10:10:40;;;;;;;0.00;0.00;;;12.20;99.90;;;;;;5096568;28;20062;-81
2021/12/30 10:13:39;;;;;;;0.10;0.10;;;12.10;99.90;;;;;;5096047;28;20054;-82
2021/12/30 10:16:14;;;;;;;2.47;0.22;;;12.10;99.90;;;;;;5062619;28;20076;-83
2021/12/30 10:18:56;;;;;;;0.00;0.00;;;12.10;99.90;;;;;;5078164;28;20469;-83
2021/12/30 10:21:31;;;;;;;0.30;0.30;;;12.10;99.90;;;;;;5077528;28;20522;-83
2021/12/30 10:24:03;;;;;;;0.50;0.50;;;12.10;99.90;;;;;;5077372;28;20503;-82
2021/12/30 10:26:31;;;;;;;0.10;0.10;;;12.20;99.90;;;;;;5095661;28;20574;-82
2021/12/30 10:29:00;;;;;;;0.75;0.10;;;12.30;99.90;;;;;;5077406;28;20336;-83
2021/12/30 10:31:30;;;;;;;0.13;0.13;;;12.40;99.90;;;;;;5077078;28;20076;-83
2021/12/30 10:34:04;;;;;;;0.30;0.17;;;12.50;99.90;;;;;;5095297;28;20055;-84
2021/12/30 10:36:34;;;;;;;0.00;0.00;;;12.60;99.90;;;;;;5076995;28;20131;-83
2021/12/30 10:39:25;;;;;;;0.05;0.05;;;12.70;99.90;;;;;;5077040;28;20131;-83
2021/12/30 10:42:16;;;;;;;0.45;0.45;;;12.80;99.90;;;;;;5076778;28;20055;-84
2021/12/30 10:44:50;;;;;;;0.20;0.10;;;12.90;99.90;;;;;;5078094;28;20044;-84
2021/12/30 10:47:18;;;;;;;0.20;0.20;;;13.00;99.90;;;;;;5077269;28;20044;-84
2021/12/30 10:50:01;;;;;;;0.45;0.45;;;13.10;99.90;;;;;;5077344;28;20460;-83
2021/12/30 10:52:28;;;;;;;0.90;0.10;;;13.30;99.90;;;;;;5076985;28;20087;-82
2021/12/30 10:54:56;;;;;;;1.10;0.35;;;13.50;99.90;;;;;;5094263;28;20088;-82
2021/12/30 10:57:28;;;;;;;0.43;0.20;;;13.60;99.90;;;;;;5076399;28;20047;-82
2021/12/30 10:59:56;;;;;;;0.60;0.30;;;13.60;99.90;;;;;;5076774;28;20052;-83
2021/12/30 11:02:26;;;;;;;0.90;0.30;;;13.80;99.90;;;;;;5076345;28;20048;-82
2021/12/30 11:05:02;;;;;;;0.65;0.15;;;14.00;99.90;;;;;;5076301;28;20122;-82
2021/12/30 11:07:47;;;;;;;0.10;0.10;;;14.00;99.90;;;;;;5076468;28;20157;-83
2021/12/30 11:10:16;;;;;;;0.10;0.10;;;14.10;99.90;;;;;;5076529;28;20493;-83
2021/12/30 11:12:45;;;;;;;0.10;0.10;;;14.20;99.90;;;;;;5076369;28;20054;-83
2021/12/30 11:15:26;;;;;;;0.10;0.10;;;14.20;99.90;;;;;;5075996;28;20134;-81
2021/12/30 11:18:18;;;;;;;0.00;0.00;;;14.30;99.90;;;;;;5094107;28;20055;-82
2021/12/30 11:20:47;;;;;;;0.00;0.00;;;14.30;99.90;;;;;;5094284;28;20048;-82
2021/12/30 11:23:16;;;;;;;0.20;0.10;;;14.40;99.90;;;;;;5076617;28;20523;-82
2021/12/30 11:25:44;;;;;;;0.15;0.15;;;14.40;99.90;;;;;;5075300;28;20134;-82
2021/12/30 11:28:12;;;;;;;0.30;0.00;;;14.50;99.90;;;;;;5094139;28;20157;-82
2021/12/30 11:30:39;;;;;;;0.10;0.10;;;14.40;99.90;;;;;;5076064;28;20067;-82
2021/12/30 11:33:05;;;;;;;0.00;0.00;;;14.40;99.90;;;;;;5075909;28;20138;-83
2021/12/30 11:35:32;;;;;;;0.13;0.10;;;14.30;99.90;;;;;;5076365;28;20131;-82
2021/12/30 11:38:00;;;;;;;0.10;0.10;;;14.30;99.90;;;;;;5075951;28;20060;-83
2021/12/30 11:40:28;;;;;;;0.10;0.00;;;14.30;99.90;;;;;;5076207;28;20135;-83
2021/12/30 11:42:58;;;;;;;0.05;0.05;;;14.30;99.90;;;;;;5076352;28;20126;-83
2021/12/30 11:45:39;;;;;;;0.08;0.08;;;14.40;99.90;;;;;;5076683;28;20051;-82
2021/12/30 11:48:25;;;;;;;0.00;0.00;;;14.40;99.90;;;;;;5054004;28;20114;-83
2021/12/30 11:51:03;;;;;;;0.00;0.00;;;14.50;99.90;;;;;;5052877;28;20036;-82
2021/12/30 11:53:30;;;;;;;0.10;0.10;;;14.40;99.90;;;;;;5054265;28;20120;-83
2021/12/30 11:56:14;;;;;;;0.00;0.00;;;14.50;99.90;;;;;;5071787;28;20594;-83
2021/12/30 11:58:53;;;;;;;0.40;0.30;;;14.60;99.90;;;;;;5056286;28;20047;-83
2021/12/30 12:01:27;;;;;;;0.32;0.30;;;14.70;99.90;;;;;;5058983;28;20167;-83
2021/12/30 12:03:54;;;;;;;0.10;0.10;;;14.70;99.90;;;;;;5055598;28;20044;-83
2021/12/30 12:06:42;;;;;;;0.35;0.10;;;14.70;99.90;;;;;;5072875;28;20056;-83
2021/12/30 12:09:33;;;;;;;0.30;0.10;;;14.60;99.90;;;;;;5055314;28;20044;-83
2021/12/30 12:12:15;;;;;;;0.20;0.20;;;14.70;99.90;;;;;;5045933;28;20058;-84
2021/12/30 12:14:55;;;;;;;0.52;0.10;;;14.80;99.90;;;;;;5055072;28;20527;-84
2021/12/30 12:17:43;;;;;;;0.10;0.10;;;14.90;99.90;;;;;;5055064;28;20049;-84
2021/12/30 12:20:30;;;;;;;0.60;0.10;;;14.80;99.90;;;;;;5055131;28;20052;-84
2021/12/30 12:22:56;;;;;;;0.10;0.10;;;14.80;99.90;;;;;;5054986;28;20056;-83
2021/12/30 12:25:28;;;;;;;0.20;0.20;;;14.70;99.90;;;;;;5056926;28;20127;-84
2021/12/30 12:27:58;;;;;;;0.38;0.10;;;14.80;99.90;;;;;;5054336;28;20124;-84
2021/12/30 12:30:37;;;;;;;0.30;0.05;;;14.90;99.90;;;;;;5051897;28;20113;-83
2021/12/30 12:33:26;;;;;;;1.35;0.10;;;14.90;99.90;;;;;;5051892;28;20044;-84
2021/12/30 12:35:53;;;;;;;0.38;0.17;;;14.90;99.90;;;;;;5054686;28;20052;-83
2021/12/30 12:38:55;;;;;;;0.40;0.10;;;15.00;99.90;;;;;;5054654;28;20135;-83
2021/12/30 12:41:33;;;;;;;0.10;0.10;;;15.00;99.90;;;;;;4990953;28;20458;-84
2021/12/30 12:44:20;;;;;;;0.30;0.10;;;15.00;99.90;;;;;;5061566;28;20408;-84
2021/12/30 12:46:49;;;;;;;0.13;0.13;;;15.00;99.90;;;;;;5054544;28;20438;-83
2021/12/30 12:49:31;;;;;;;0.10;0.10;;;14.90;99.90;;;;;;5072580;28;20512;-85
2021/12/30 12:51:59;;;;;;;0.10;0.10;;;14.90;99.90;;;;;;5071924;28;20112;-84
2021/12/30 12:54:47;;;;;;;0.30;0.10;;;14.90;99.90;;;;;;5054872;28;20048;-84
2021/12/30 12:57:17;;;;;;;0.10;0.10;;;14.90;99.90;;;;;;5072518;28;20052;-83
2021/12/30 12:59:44;;;;;;;2.00;0.20;;;14.80;99.90;;;;;;5054636;28;20127;-83
2021/12/30 13:02:13;;;;;;;0.98;0.20;;;14.80;99.90;;;;;;5054265;28;20131;-83